Latest METARs, TAFs and NOTAMs for LCLK


---------------------------------------------------------------------------
	(OBSERVATIONS)
LCLK 220730Z 33005KT 9999 FEW030 13/03 Q1025 NOSIG=
LCLK 220700Z 33004KT 9999 FEW030 12/03 Q1025 NOSIG=
LCLK 220630Z 31004KT 9999 FEW030 10/03 Q1025 NOSIG=
LCLK 220600Z 32006KT 9999 FEW025 08/02 Q1024 NOSIG=
LCLK 220530Z 30006KT 9999 FEW025 06/01 Q1024 NOSIG=
---------------------------------------------------------------------------
	(FC)
Sorry, FC For LCLK Not Found
---------------------------------------------------------------------------
	(TERMINAL AREA FORECAST)
LCLK 220530Z 2206/2306 35008KT 9999 FEW040=
---------------------------------------------------------------------------
	(NOTAMS)


LCLK A0016/10 THERE ARE FREQUENT REPORTS OF LASER LIGHTS DIRECTED
    AT ACFT MOSTLY FROM THE FOLLOWING AREAS: 1.ON ARRIVALS FROM
    NW WITHIN OF 20NM FROM AD 2.ON LETDOWN PROCEDURES RWY22 AIRCREW
    SHALL BE VIGILANT TO SUCH EVENTS AND REPORT THEM TO ATC PASSING
    WHERE POSSIBLE INFO AS TO THE LOCATION. 12 JAN 09:27 2010
    UNTIL PERM. CREATED: 12 JAN 09:37 2010

LCLK A0018/16 REF AIP SUP 001/2016 HAND AMEND ADLAS1V APPROACH
    PROCEDURE TO READ ADLAS1W AND SOBOS1V APPROACH PROCEDURE
    TO READ SOBOS1W. 11 JAN 13:36 2016 UNTIL PERM. CREATED: 11
    JAN 13:38 2016

LCLK A0019/17 VDGS ON CONTACT STANDS MAY NOT BE ACTIVATED TO
    ACCOMMODATE TRAINING FOR NEW AIRCRAFT MARSHALLERS. PILOTS
    ARE ASKED TO APPROACH THE STAND WITH CAUTION AND FOLLOW THE
    MARSHALLER'S INSTRUCTIONS. 16 JAN 03:00 2017 UNTIL 16 FEB
    21:00 2017. CREATED: 13 JAN 08:59 2017

LCLK A0026/16 REF AIRAC AIP SUP 001/2016 EFF 04 FEB 16 HAND AMEND
    BOSIS RNAV VISUAL RWY22 TABLE LK508 COORDINATES TO READ 345343.73N
    0334704.69E. 15 JAN 13:09 2016 UNTIL PERM. CREATED: 15 JAN
    13:11 2016

LCLK A0110/12 NEW HELIPAD FOR CYPRUS POLICE USE ONLY ESTABLISHED
    250 METERS NORTH OF THE ATC TOWER ENCLOSED BY THE FOLLOWING
    COORDINATES: 3452.502N03337.012E 3452.528N03337.013E 3452.518N03337.185E
    3452.465N03337.118E HOURS OF OPERATION: H24. 08 FEB 14:53
    2012 UNTIL PERM. CREATED: 08 FEB 15:02 2012

LCLK A0694/12 OBSTACLE ERECTED TYPE: ANTENNA COORDINATES: 345228.69N0333700.25E
    ELEVATION AT TOP: 39.5M AMSL MARKED AND LIGHTED (RED. 16
    AUG 18:42 2012 UNTIL PERM. CREATED: 16 AUG 18:46 2012

LCLK A0695/12 OBSTACLE ERECTED TYPE: WIND MEASUREMENT MAST COORDINATES:
    345227N 0333110E HEIGHT : 50M AGL ELAVATION AT TOP : 240M
    AMSL MARKED AND LIGHTED. 16 AUG 18:48 2012 UNTIL PERM. CREATED:
    16 AUG 18:50 2012

LCLK A0762/15 OBSTACLE ERECTED NAME: LC-0005CR TYPE: CRANE COORDINATES:
    345554.27N0333814.51E HEIGHT: 65.5M AGL ELEVATION AT TOP:
    71M AMSL MARKED AND LIGHTED. 24 JUN 07:35 2015 UNTIL PERM.
    CREATED: 24 JUN 07:40 2015

LCLK A0924/15 FOR FLIGHT PLANNING PURPOSES ALL ARRIVALS TO LCA
    ENTERING NICOSIA FIR VIA TOSKA, EVENO, TOMBI MUST ROUTE TO
    BONEK FOR THE BONEK1A ARRIVAL. ALL OTHER STARS AVAILABLE
    ONLY BY ATC. 31 JUL 00:01 2015 UNTIL PERM. CREATED: 30 JUL
    11:29 2015

LCLK A0980/16 RWY 04/22 CLOSED DUE TO WIP. THU 2100-FRI 0300,
    SAT 2100-SUN 0300, 19 JAN 21:00 2017 UNTIL 26 FEB 03:00 2017.
    CREATED: 19 SEP 15:31 2016

LCLK A1180/14 OBSTACLE ERECTED TYPE: ANTENNA COORDINATES: 345330.64N0333816.55E
    HEIGHT:28.69M AGL ELEVATION AT TOP: 31.25M AMSL MARKED AND
    LIGHTED (RED. 13 NOV 05:00 2014 UNTIL PERM. CREATED: 11 NOV
    11:52 2014

LCLK A1197/14 FOR FLIGHT PLANNING PURPOSES ALL DEPARTURES LCA
    RWY22 EXITING NICOSIA FIR VIA TOSKA, EVENO, TOMBI MUST ROUTE:
    1. PAFOS 2B PHA DCT GENOS DCT TOSKA 2. PAFOS 2B PHA DCT GENOS
    DCT PEDER DCT EVENO 3. PAFOS 2B PHA DCT GENOS DCT PEDER A16/UA16
    TOMBI ALL OTHER SIDS ONLY AVAILABLE BY ATC. 13 NOV 13:58
    2014 UNTIL PERM. CREATED: 13 NOV 13:59 2014

LCLK A1235/14 A GROUP OF FOUR (4) CRANES ERECTED AT LARNAKA PORT
    AT THE FOLLOWING POSITIONS: 345542.50N0333839.08E HEIGHT
    47M AT THE TOP 49.3M AMSL NOT LIGHTED 345529.26N0333840.08E
    HEIGHT 84M AT THE TOP 86.3M AMSL LIGHTED 345525.08N0333830.27E
    HEIGHT 84M AT THE TOP 86.3M AMSL LIGHTED 345526.30N0333829.02E
    HEIGHT 50M AT THE TOP 52.3M AMSL LIGHTED. 26 NOV 11:46 2014
    UNTIL PERM. CREATED: 26 NOV 11:48 2014

LCLK A1412/16 VDF OUT OF SERVICE DUE TO MAINTENANCE. 18 NOV 08:07
    2016 UNTIL 18 FEB 23:59 2017 ESTIMATED. CREATED: 18 NOV 08:08
    2016

LCLK A1435/16 STUDENT AIR TRAFFIC CONTROL OFFICERS ON JOB TRAINING
    UNDER SUPERVISION ON 24HR BASIS. PILOTS COURTESY WILL BE
    APPRECIATED. 21 NOV 10:59 2016 UNTIL 21 FEB 11:00 2017 ESTIMATED.
    CREATED: 21 NOV 11:02 2016

LCLK A1511/16 VFR ROUTES AND TRAINING AREAS 02 CHART COMPLETELY
    WITHDRAWN. REF AIP AD.2 LCLK 24 VFR. 02 DEC 07:56 2016 UNTIL
    PERM. CREATED: 02 DEC 08:21 2016

---------------------------------------------------------------------------